TimeEST,TemperatureF,Dew PointF,Humidity,Sea Level PressureIn,VisibilityMPH,Wind Direction,Wind SpeedMPH,Gust SpeedMPH,PrecipitationIn,Events,Conditions,WindDirDegrees,DateUTC
12:52 AM,30.9,25.0,79,29.99,10.0,NW,6.9,-,N/A,,Clear,310,2013-02-17 05:52:00
1:52 AM,30.0,23.0,75,30.01,10.0,NW,8.1,-,N/A,,Clear,310,2013-02-17 06:52:00
2:52 AM,28.9,21.0,72,30.02,10.0,WNW,8.1,-,N/A,,Clear,300,2013-02-17 07:52:00
3:52 AM,28.0,19.9,72,30.03,10.0,WNW,8.1,-,N/A,,Clear,290,2013-02-17 08:52:00
4:52 AM,27.0,19.9,75,30.05,10.0,WNW,6.9,-,N/A,,Clear,300,2013-02-17 09:52:00
5:52 AM,27.0,19.0,72,30.08,10.0,WNW,8.1,-,N/A,,Clear,300,2013-02-17 10:52:00
6:52 AM,25.0,18.0,75,30.09,10.0,West,5.8,-,N/A,,Clear,280,2013-02-17 11:52:00
7:52 AM,27.0,18.0,69,30.12,10.0,WNW,10.4,-,N/A,,Clear,290,2013-02-17 12:52:00
8:52 AM,30.0,17.1,59,30.15,10.0,NW,10.4,-,N/A,,Clear,310,2013-02-17 13:52:00
9:52 AM,32.0,14.0,48,30.17,10.0,NW,17.3,26.5,N/A,,Clear,320,2013-02-17 14:52:00
11:52 AM,35.1,12.9,40,30.18,10.0,NW,18.4,27.6,N/A,,Partly Cloudy,320,2013-02-17 16:52:00
12:52 PM,37.0,14.0,39,30.17,10.0,WNW,13.8,20.7,0.01,,Clear,300,2013-02-17 17:52:00
1:52 PM,39.9,14.0,35,30.15,10.0,WNW,8.1,23.0,N/A,,Partly Cloudy,300,2013-02-17 18:52:00
2:52 PM,41.0,12.9,32,30.15,10.0,WNW,13.8,25.3,N/A,,Clear,300,2013-02-17 19:52:00
3:52 PM,41.0,10.0,28,30.15,10.0,WNW,11.5,-,N/A,,Clear,300,2013-02-17 20:52:00
4:52 PM,41.0,12.0,31,30.17,10.0,WNW,11.5,-,N/A,,Clear,290,2013-02-17 21:52:00
5:52 PM,37.9,14.0,38,30.19,10.0,West,6.9,-,N/A,,Clear,270,2013-02-17 22:52:00
6:52 PM,33.1,15.1,48,30.21,10.0,WSW,4.6,-,N/A,,Clear,240,2013-02-17 23:52:00
7:52 PM,30.9,19.9,64,30.23,10.0,WSW,4.6,-,N/A,,Clear,250,2013-02-18 00:52:00
8:52 PM,28.9,21.0,72,30.25,10.0,WSW,4.6,-,N/A,,Clear,240,2013-02-18 01:52:00
9:52 PM,28.0,21.9,78,30.27,10.0,Calm,Calm,-,N/A,,Clear,0,2013-02-18 02:52:00
10:52 PM,26.1,21.0,81,30.29,10.0,Calm,Calm,-,N/A,,Clear,0,2013-02-18 03:52:00